DLH175 EDDB-EDDF
Flight info
| Callsign | DLH175 |
|---|---|
| Flight time | 0h 47m |
| Altitude | 22000 |
| Route | SUKIP4B/06L SUKIP DCT MAXAN DCT ORTAG T177 ODIPI/N0386F210 T157 KERAX KERAX5A |
| Aircraft | A321/M-SDE2E3FGILORWXYZ/HB1 |
Departure
| Time | 2026-04-18 10:23 |
|---|---|
| Airport | Berlin Brandenburg Airport (EDDB) |
Arrival
| Time | 2026-04-18 11:11 |
|---|---|
| Airport | Frankfurt Main Airport (EDDF) |
| Time | Latitude | Longitude | Altitude | Speed | Heading |
|---|---|---|---|---|---|
| 2026-04-18 09:36 | 52.36549 | 13.50025 | 155 ft | 0 kts | 249° |
| 2026-04-18 10:11 | 52.36554 | 13.50048 | 155 ft | 4 kts | 249° |
| 2026-04-18 10:11 | 52.36564 | 13.50089 | 155 ft | 4 kts | 249° |
| 2026-04-18 10:11 | 52.36570 | 13.50129 | 155 ft | 4 kts | 277° |
| 2026-04-18 10:12 | 52.36560 | 13.50165 | 155 ft | 4 kts | 324° |
| 2026-04-18 10:12 | 52.36546 | 13.50179 | 155 ft | 2 kts | 339° |
| 2026-04-18 10:12 | 52.36544 | 13.50180 | 155 ft | 0 kts | 339° |
| 2026-04-18 10:16 | 52.36547 | 13.50178 | 155 ft | 2 kts | 339° |
| 2026-04-18 10:16 | 52.36565 | 13.50180 | 155 ft | 5 kts | 19° |
| 2026-04-18 10:17 | 52.36602 | 13.50208 | 155 ft | 6 kts | 13° |
| 2026-04-18 10:17 | 52.36648 | 13.50190 | 155 ft | 8 kts | 338° |
| 2026-04-18 10:17 | 52.36700 | 13.50153 | 155 ft | 8 kts | 324° |
| 2026-04-18 10:17 | 52.36734 | 13.50068 | 155 ft | 10 kts | 307° |
| 2026-04-18 10:18 | 52.36795 | 13.50021 | 155 ft | 10 kts | 340° |
| 2026-04-18 10:18 | 52.36848 | 13.49983 | 155 ft | 8 kts | 328° |
| 2026-04-18 10:18 | 52.36863 | 13.49902 | 155 ft | 8 kts | 261° |
| 2026-04-18 10:18 | 52.36840 | 13.49799 | 155 ft | 13 kts | 249° |
| 2026-04-18 10:19 | 52.36796 | 13.49614 | 155 ft | 19 kts | 248° |
| 2026-04-18 10:19 | 52.36774 | 13.49490 | 155 ft | 9 kts | 276° |
| 2026-04-18 10:19 | 52.36797 | 13.49440 | 154 ft | 1 kts | 325° |
| 2026-04-18 10:19 | 52.36805 | 13.49432 | 154 ft | 0 kts | 329° |
| 2026-04-18 10:21 | 52.36808 | 13.49430 | 155 ft | 1 kts | 334° |
| 2026-04-18 10:21 | 52.36833 | 13.49433 | 155 ft | 5 kts | 18° |
| 2026-04-18 10:21 | 52.36872 | 13.49477 | 155 ft | 10 kts | 39° |
| 2026-04-18 10:22 | 52.36944 | 13.49573 | 155 ft | 15 kts | 39° |
| 2026-04-18 10:22 | 52.37027 | 13.49682 | 155 ft | 12 kts | 39° |
| 2026-04-18 10:22 | 52.37068 | 13.49765 | 155 ft | 2 kts | 68° |
| 2026-04-18 10:23 | 52.37096 | 13.49880 | 155 ft | 42 kts | 68° |
| 2026-04-18 10:23 | 52.37292 | 13.50708 | 155 ft | 112 kts | 69° |
| 2026-04-18 10:23 | 52.37649 | 13.52205 | 198 ft | 164 kts | 70° |
| 2026-04-18 10:23 | 52.38053 | 13.53885 | 975 ft | 156 kts | 69° |
| 2026-04-18 10:24 | 52.38442 | 13.55514 | 1699 ft | 156 kts | 71° |
| 2026-04-18 10:24 | 52.38832 | 13.57160 | 2323 ft | 155 kts | 70° |
| 2026-04-18 10:24 | 52.39221 | 13.58809 | 2867 ft | 156 kts | 70° |
| 2026-04-18 10:24 | 52.39615 | 13.60472 | 3389 ft | 159 kts | 70° |
| 2026-04-18 10:25 | 52.40160 | 13.62157 | 3669 ft | 179 kts | 50° |
| 2026-04-18 10:25 | 52.41229 | 13.63408 | 3896 ft | 201 kts | 21° |
| 2026-04-18 10:25 | 52.42617 | 13.64225 | 4113 ft | 223 kts | 19° |
| 2026-04-18 10:25 | 52.44164 | 13.65132 | 4282 ft | 249 kts | 19° |
| 2026-04-18 10:26 | 52.45846 | 13.66124 | 4769 ft | 262 kts | 18° |
| 2026-04-18 10:26 | 52.47572 | 13.67148 | 5467 ft | 266 kts | 19° |
| 2026-04-18 10:26 | 52.49324 | 13.68191 | 6190 ft | 269 kts | 18° |
| 2026-04-18 10:26 | 52.51127 | 13.68805 | 6905 ft | 270 kts | 359° |
| 2026-04-18 10:27 | 52.52972 | 13.68326 | 7595 ft | 271 kts | 338° |
| 2026-04-18 10:27 | 52.54588 | 13.66766 | 8295 ft | 272 kts | 317° |
| 2026-04-18 10:27 | 52.55747 | 13.64323 | 8995 ft | 274 kts | 295° |
| 2026-04-18 10:27 | 52.56225 | 13.61292 | 9711 ft | 277 kts | 271° |
| 2026-04-18 10:28 | 52.55876 | 13.58183 | 10398 ft | 281 kts | 247° |
| 2026-04-18 10:28 | 52.54881 | 13.55306 | 10688 ft | 301 kts | 239° |
| 2026-04-18 10:28 | 52.53719 | 13.52295 | 10814 ft | 323 kts | 238° |
| 2026-04-18 10:28 | 52.52462 | 13.49112 | 11020 ft | 340 kts | 238° |
| 2026-04-18 10:29 | 52.51156 | 13.45826 | 11499 ft | 346 kts | 238° |
| 2026-04-18 10:29 | 52.49836 | 13.42496 | 12087 ft | 350 kts | 238° |
| 2026-04-18 10:29 | 52.48503 | 13.39125 | 12682 ft | 353 kts | 238° |
| 2026-04-18 10:29 | 52.47165 | 13.35728 | 13286 ft | 356 kts | 238° |
| 2026-04-18 10:30 | 52.45814 | 13.32295 | 13869 ft | 360 kts | 238° |
| 2026-04-18 10:30 | 52.44452 | 13.28829 | 14393 ft | 364 kts | 238° |
| 2026-04-18 10:30 | 52.43072 | 13.25325 | 14916 ft | 367 kts | 238° |
| 2026-04-18 10:30 | 52.41683 | 13.21802 | 15435 ft | 370 kts | 238° |
| 2026-04-18 10:31 | 52.40300 | 13.18292 | 15944 ft | 373 kts | 238° |
| 2026-04-18 10:31 | 52.38886 | 13.14709 | 16460 ft | 376 kts | 238° |
| 2026-04-18 10:31 | 52.37459 | 13.11107 | 16963 ft | 379 kts | 238° |
| 2026-04-18 10:31 | 52.36018 | 13.07477 | 17457 ft | 382 kts | 238° |
| 2026-04-18 10:32 | 52.34566 | 13.03823 | 17961 ft | 385 kts | 238° |
| 2026-04-18 10:32 | 52.33102 | 13.00138 | 18445 ft | 388 kts | 238° |
| 2026-04-18 10:32 | 52.31624 | 12.96428 | 18859 ft | 390 kts | 238° |
| 2026-04-18 10:32 | 52.30141 | 12.92712 | 19354 ft | 390 kts | 238° |
| 2026-04-18 10:33 | 52.28659 | 12.88999 | 19795 ft | 392 kts | 238° |
| 2026-04-18 10:33 | 52.27166 | 12.85258 | 20212 ft | 394 kts | 238° |
| 2026-04-18 10:33 | 52.25660 | 12.81494 | 20617 ft | 397 kts | 238° |
| 2026-04-18 10:33 | 52.24143 | 12.77713 | 21014 ft | 399 kts | 238° |
| 2026-04-18 10:34 | 52.22613 | 12.73913 | 21415 ft | 402 kts | 238° |
| 2026-04-18 10:34 | 52.21071 | 12.70090 | 21813 ft | 404 kts | 238° |
| 2026-04-18 10:34 | 52.19520 | 12.66246 | 22125 ft | 407 kts | 238° |
| 2026-04-18 10:34 | 52.17958 | 12.62380 | 22186 ft | 410 kts | 238° |
| 2026-04-18 10:35 | 52.16390 | 12.58500 | 22187 ft | 411 kts | 238° |
| 2026-04-18 10:35 | 52.14818 | 12.54608 | 22188 ft | 411 kts | 238° |
| 2026-04-18 10:35 | 52.13248 | 12.50727 | 22188 ft | 411 kts | 238° |
| 2026-04-18 10:35 | 52.11673 | 12.46851 | 22187 ft | 411 kts | 238° |
| 2026-04-18 10:36 | 52.10113 | 12.43021 | 22173 ft | 411 kts | 238° |
| 2026-04-18 10:36 | 52.08533 | 12.39138 | 22183 ft | 412 kts | 238° |
| 2026-04-18 10:36 | 52.06951 | 12.35253 | 22182 ft | 412 kts | 238° |
| 2026-04-18 10:36 | 52.05369 | 12.31379 | 22182 ft | 410 kts | 238° |
| 2026-04-18 10:37 | 52.03795 | 12.27531 | 22183 ft | 409 kts | 237° |
| 2026-04-18 10:37 | 52.02221 | 12.23694 | 22179 ft | 408 kts | 237° |
| 2026-04-18 10:37 | 52.00647 | 12.19852 | 22174 ft | 408 kts | 237° |
| 2026-04-18 10:37 | 51.99075 | 12.16018 | 22172 ft | 408 kts | 237° |
| 2026-04-18 10:38 | 51.97504 | 12.12190 | 22170 ft | 408 kts | 237° |
| 2026-04-18 10:38 | 51.95933 | 12.08365 | 22169 ft | 408 kts | 237° |
| 2026-04-18 10:38 | 51.94357 | 12.04543 | 22162 ft | 408 kts | 237° |
| 2026-04-18 10:38 | 51.92779 | 12.00728 | 22161 ft | 408 kts | 237° |
| 2026-04-18 10:39 | 51.91197 | 11.96915 | 22151 ft | 408 kts | 237° |
| 2026-04-18 10:39 | 51.89611 | 11.93102 | 22151 ft | 408 kts | 237° |
| 2026-04-18 10:39 | 51.88029 | 11.89294 | 22151 ft | 408 kts | 237° |
| 2026-04-18 10:39 | 51.86447 | 11.85486 | 22149 ft | 408 kts | 237° |
| 2026-04-18 10:40 | 51.84861 | 11.81679 | 22150 ft | 408 kts | 237° |
| 2026-04-18 10:40 | 51.83271 | 11.77871 | 22153 ft | 408 kts | 237° |
| 2026-04-18 10:40 | 51.81680 | 11.74072 | 22151 ft | 408 kts | 237° |
| 2026-04-18 10:40 | 51.80109 | 11.70322 | 22163 ft | 408 kts | 237° |
| 2026-04-18 10:41 | 51.78525 | 11.66534 | 22166 ft | 407 kts | 237° |
| 2026-04-18 10:41 | 51.76944 | 11.62750 | 22170 ft | 407 kts | 237° |
| 2026-04-18 10:41 | 51.75357 | 11.58963 | 22169 ft | 406 kts | 237° |
| 2026-04-18 10:41 | 51.73773 | 11.55198 | 22170 ft | 406 kts | 237° |
| 2026-04-18 10:42 | 51.72185 | 11.51432 | 22168 ft | 406 kts | 237° |
| 2026-04-18 10:42 | 51.70596 | 11.47670 | 22154 ft | 406 kts | 237° |
| 2026-04-18 10:42 | 51.69010 | 11.43915 | 22154 ft | 406 kts | 237° |
| 2026-04-18 10:42 | 51.67423 | 11.40157 | 22154 ft | 406 kts | 237° |
| 2026-04-18 10:43 | 51.65832 | 11.36400 | 22153 ft | 406 kts | 237° |
| 2026-04-18 10:43 | 51.64236 | 11.32646 | 22153 ft | 406 kts | 237° |
| 2026-04-18 10:43 | 51.62641 | 11.28899 | 22153 ft | 406 kts | 237° |
| 2026-04-18 10:43 | 51.61047 | 11.25151 | 22154 ft | 406 kts | 237° |
| 2026-04-18 10:44 | 51.59453 | 11.21404 | 22156 ft | 406 kts | 237° |
| 2026-04-18 10:44 | 51.57852 | 11.17654 | 22155 ft | 406 kts | 237° |
| 2026-04-18 10:44 | 51.56255 | 11.13918 | 22161 ft | 406 kts | 237° |
| 2026-04-18 10:44 | 51.54657 | 11.10186 | 22167 ft | 406 kts | 237° |
| 2026-04-18 10:45 | 51.53056 | 11.06454 | 22170 ft | 405 kts | 237° |
| 2026-04-18 10:45 | 51.51455 | 11.02732 | 22158 ft | 405 kts | 237° |
| 2026-04-18 10:45 | 51.49872 | 10.99058 | 22161 ft | 405 kts | 237° |
| 2026-04-18 10:45 | 51.48272 | 10.95348 | 22182 ft | 405 kts | 236° |
| 2026-04-18 10:46 | 51.46646 | 10.91584 | 22166 ft | 405 kts | 236° |
| 2026-04-18 10:46 | 51.45059 | 10.87913 | 22168 ft | 405 kts | 236° |
| 2026-04-18 10:46 | 51.43454 | 10.84203 | 22165 ft | 405 kts | 236° |
| 2026-04-18 10:46 | 51.41849 | 10.80496 | 22167 ft | 405 kts | 236° |
| 2026-04-18 10:47 | 51.40243 | 10.76790 | 22165 ft | 405 kts | 236° |
| 2026-04-18 10:47 | 51.38636 | 10.73083 | 22164 ft | 405 kts | 236° |
| 2026-04-18 10:47 | 51.37029 | 10.69381 | 22166 ft | 405 kts | 236° |
| 2026-04-18 10:47 | 51.35421 | 10.65686 | 22165 ft | 405 kts | 236° |
| 2026-04-18 10:48 | 51.33810 | 10.61994 | 22166 ft | 404 kts | 236° |
| 2026-04-18 10:48 | 51.32198 | 10.58304 | 22151 ft | 404 kts | 236° |
| 2026-04-18 10:48 | 51.30464 | 10.54842 | 22156 ft | 406 kts | 225° |
| 2026-04-18 10:48 | 51.28363 | 10.51818 | 22158 ft | 406 kts | 223° |
| 2026-04-18 10:49 | 51.26248 | 10.48823 | 22176 ft | 406 kts | 223° |
| 2026-04-18 10:49 | 51.24128 | 10.45831 | 22166 ft | 406 kts | 223° |
| 2026-04-18 10:49 | 51.22014 | 10.42851 | 22157 ft | 406 kts | 223° |
| 2026-04-18 10:49 | 51.19893 | 10.39860 | 22158 ft | 406 kts | 223° |
| 2026-04-18 10:50 | 51.17775 | 10.36881 | 22157 ft | 405 kts | 223° |
| 2026-04-18 10:50 | 51.15661 | 10.33916 | 22155 ft | 405 kts | 223° |
| 2026-04-18 10:50 | 51.13542 | 10.30950 | 22155 ft | 405 kts | 223° |
| 2026-04-18 10:50 | 51.11425 | 10.27986 | 22144 ft | 405 kts | 223° |
| 2026-04-18 10:51 | 51.09305 | 10.25023 | 22146 ft | 405 kts | 223° |
| 2026-04-18 10:51 | 51.07216 | 10.22103 | 22147 ft | 405 kts | 223° |
| 2026-04-18 10:51 | 51.05099 | 10.19143 | 22147 ft | 405 kts | 223° |
| 2026-04-18 10:51 | 51.02980 | 10.16187 | 22147 ft | 405 kts | 223° |
| 2026-04-18 10:52 | 51.00864 | 10.13237 | 22147 ft | 405 kts | 223° |
| 2026-04-18 10:52 | 50.98742 | 10.10281 | 22163 ft | 405 kts | 223° |
| 2026-04-18 10:52 | 50.96621 | 10.07332 | 22156 ft | 406 kts | 223° |
| 2026-04-18 10:52 | 50.94495 | 10.04385 | 22146 ft | 406 kts | 223° |
| 2026-04-18 10:53 | 50.92370 | 10.01444 | 22144 ft | 406 kts | 223° |
| 2026-04-18 10:53 | 50.90254 | 9.98517 | 22041 ft | 400 kts | 223° |
| 2026-04-18 10:53 | 50.88185 | 9.95662 | 21780 ft | 390 kts | 223° |
| 2026-04-18 10:53 | 50.86146 | 9.92852 | 21517 ft | 387 kts | 223° |
| 2026-04-18 10:54 | 50.84124 | 9.90068 | 21258 ft | 385 kts | 223° |
| 2026-04-18 10:54 | 50.82114 | 9.87303 | 21010 ft | 378 kts | 223° |
| 2026-04-18 10:54 | 50.80153 | 9.84607 | 20636 ft | 370 kts | 223° |
| 2026-04-18 10:54 | 50.78223 | 9.81949 | 20197 ft | 365 kts | 223° |
| 2026-04-18 10:55 | 50.76325 | 9.79337 | 19777 ft | 359 kts | 223° |
| 2026-04-18 10:55 | 50.74479 | 9.76797 | 19346 ft | 354 kts | 223° |
| 2026-04-18 10:55 | 50.72628 | 9.74257 | 18919 ft | 350 kts | 223° |
| 2026-04-18 10:55 | 50.70802 | 9.71758 | 18480 ft | 346 kts | 223° |
| 2026-04-18 10:56 | 50.68993 | 9.69289 | 18009 ft | 342 kts | 223° |
| 2026-04-18 10:56 | 50.67208 | 9.66858 | 17585 ft | 337 kts | 223° |
| 2026-04-18 10:56 | 50.65444 | 9.64457 | 17132 ft | 332 kts | 223° |
| 2026-04-18 10:56 | 50.63707 | 9.62094 | 16700 ft | 328 kts | 223° |
| 2026-04-18 10:57 | 50.61994 | 9.59760 | 16271 ft | 324 kts | 223° |
| 2026-04-18 10:57 | 50.60297 | 9.57450 | 15846 ft | 320 kts | 223° |
| 2026-04-18 10:57 | 50.58615 | 9.55172 | 15439 ft | 317 kts | 223° |
| 2026-04-18 10:57 | 50.56953 | 9.52922 | 14987 ft | 314 kts | 223° |
| 2026-04-18 10:58 | 50.55301 | 9.50688 | 14592 ft | 311 kts | 223° |
| 2026-04-18 10:58 | 50.53667 | 9.48473 | 14179 ft | 309 kts | 223° |
| 2026-04-18 10:58 | 50.52045 | 9.46274 | 13743 ft | 307 kts | 223° |
| 2026-04-18 10:58 | 50.50431 | 9.44087 | 13307 ft | 304 kts | 223° |
| 2026-04-18 10:59 | 50.48836 | 9.41929 | 12886 ft | 301 kts | 223° |
| 2026-04-18 10:59 | 50.47258 | 9.39802 | 12478 ft | 298 kts | 223° |
| 2026-04-18 10:59 | 50.45711 | 9.37724 | 12090 ft | 295 kts | 222° |
| 2026-04-18 10:59 | 50.44155 | 9.35636 | 11687 ft | 293 kts | 222° |
| 2026-04-18 11:00 | 50.42616 | 9.33564 | 11297 ft | 291 kts | 222° |
| 2026-04-18 11:00 | 50.41091 | 9.31509 | 10898 ft | 288 kts | 222° |
| 2026-04-18 11:00 | 50.39586 | 9.29486 | 10646 ft | 281 kts | 222° |
| 2026-04-18 11:00 | 50.38103 | 9.27496 | 10273 ft | 280 kts | 221° |
| 2026-04-18 11:01 | 50.36629 | 9.25521 | 9891 ft | 278 kts | 221° |
| 2026-04-18 11:01 | 50.35166 | 9.23561 | 9514 ft | 275 kts | 221° |
| 2026-04-18 11:01 | 50.33719 | 9.21626 | 9144 ft | 272 kts | 221° |
| 2026-04-18 11:02 | 50.30864 | 9.17804 | 8388 ft | 269 kts | 221° |
| 2026-04-18 11:02 | 50.29447 | 9.15908 | 8012 ft | 267 kts | 221° |
| 2026-04-18 11:02 | 50.28042 | 9.14028 | 7616 ft | 265 kts | 221° |
| 2026-04-18 11:02 | 50.26638 | 9.12158 | 7240 ft | 264 kts | 221° |
| 2026-04-18 11:03 | 50.25241 | 9.10300 | 6886 ft | 263 kts | 221° |
| 2026-04-18 11:03 | 50.23855 | 9.08458 | 6515 ft | 261 kts | 221° |
| 2026-04-18 11:03 | 50.22477 | 9.06624 | 6123 ft | 260 kts | 221° |
| 2026-04-18 11:03 | 50.21099 | 9.04806 | 5707 ft | 260 kts | 221° |
| 2026-04-18 11:04 | 50.19721 | 9.02982 | 5324 ft | 260 kts | 222° |
| 2026-04-18 11:04 | 50.18351 | 9.01140 | 4948 ft | 260 kts | 222° |
| 2026-04-18 11:04 | 50.16987 | 8.99297 | 4618 ft | 257 kts | 222° |
| 2026-04-18 11:04 | 50.15689 | 8.97517 | 4489 ft | 247 kts | 226° |
| 2026-04-18 11:05 | 50.14663 | 8.95470 | 4353 ft | 234 kts | 242° |
| 2026-04-18 11:05 | 50.13999 | 8.93214 | 4137 ft | 227 kts | 250° |
| 2026-04-18 11:05 | 50.13459 | 8.90912 | 3999 ft | 226 kts | 251° |
| 2026-04-18 11:05 | 50.12925 | 8.88606 | 3991 ft | 227 kts | 251° |
| 2026-04-18 11:06 | 50.12384 | 8.86296 | 3987 ft | 227 kts | 251° |
| 2026-04-18 11:06 | 50.11840 | 8.83986 | 3987 ft | 227 kts | 251° |
| 2026-04-18 11:06 | 50.11295 | 8.81674 | 3985 ft | 226 kts | 251° |
| 2026-04-18 11:06 | 50.10766 | 8.79432 | 3800 ft | 217 kts | 251° |
| 2026-04-18 11:07 | 50.10252 | 8.77254 | 3537 ft | 212 kts | 251° |
| 2026-04-18 11:07 | 50.09746 | 8.75112 | 3267 ft | 208 kts | 251° |
| 2026-04-18 11:07 | 50.09257 | 8.73045 | 2992 ft | 199 kts | 251° |
| 2026-04-18 11:07 | 50.08789 | 8.71068 | 2734 ft | 190 kts | 251° |
| 2026-04-18 11:08 | 50.08488 | 8.69800 | 2551 ft | 187 kts | 251° |
| 2026-04-18 11:08 | 50.08042 | 8.67918 | 2334 ft | 183 kts | 251° |
| 2026-04-18 11:08 | 50.07601 | 8.66059 | 2072 ft | 184 kts | 251° |
| 2026-04-18 11:08 | 50.07024 | 8.63629 | 1735 ft | 171 kts | 251° |
| 2026-04-18 11:09 | 50.06633 | 8.61986 | 1517 ft | 155 kts | 251° |
| 2026-04-18 11:09 | 50.06266 | 8.60453 | 1325 ft | 149 kts | 251° |
| 2026-04-18 11:09 | 50.06025 | 8.59439 | 1160 ft | 147 kts | 250° |
| 2026-04-18 11:09 | 50.05670 | 8.57945 | 985 ft | 148 kts | 251° |
| 2026-04-18 11:10 | 50.05318 | 8.56466 | 802 ft | 147 kts | 251° |
| 2026-04-18 11:10 | 50.04963 | 8.54968 | 627 ft | 148 kts | 251° |
| 2026-04-18 11:10 | 50.04605 | 8.53458 | 423 ft | 148 kts | 251° |
| 2026-04-18 11:10 | 50.04271 | 8.52018 | 344 ft | 131 kts | 246° |
| 2026-04-18 11:11 | 50.04012 | 8.50990 | 325 ft | 62 kts | 250° |
| 2026-04-18 11:11 | 50.03916 | 8.50586 | 322 ft | 36 kts | 248° |
| 2026-04-18 11:11 | 50.03771 | 8.50291 | 319 ft | 17 kts | 220° |
| 2026-04-18 11:11 | 50.03695 | 8.50192 | 319 ft | 9 kts | 215° |
| 2026-04-18 11:12 | 50.03655 | 8.50187 | 323 ft | 3 kts | 168° |
| 2026-04-18 11:12 | 50.03629 | 8.50221 | 324 ft | 8 kts | 119° |
| 2026-04-18 11:12 | 50.03632 | 8.50301 | 325 ft | 7 kts | 71° |
| 2026-04-18 11:12 | 50.03648 | 8.50371 | 325 ft | 7 kts | 70° |
| 2026-04-18 11:13 | 50.03672 | 8.50472 | 326 ft | 14 kts | 69° |
| 2026-04-18 11:13 | 50.03718 | 8.50656 | 327 ft | 22 kts | 70° |
| 2026-04-18 11:13 | 50.03781 | 8.50922 | 331 ft | 29 kts | 69° |
| 2026-04-18 11:13 | 50.03852 | 8.51218 | 333 ft | 29 kts | 70° |
| 2026-04-18 11:14 | 50.03918 | 8.51493 | 334 ft | 23 kts | 69° |
| 2026-04-18 11:14 | 50.03974 | 8.51727 | 334 ft | 23 kts | 69° |
| 2026-04-18 11:14 | 50.04031 | 8.51965 | 335 ft | 23 kts | 70° |
| 2026-04-18 11:14 | 50.04086 | 8.52199 | 350 ft | 23 kts | 70° |
| 2026-04-18 11:15 | 50.04141 | 8.52427 | 355 ft | 22 kts | 69° |
| 2026-04-18 11:15 | 50.04193 | 8.52646 | 352 ft | 21 kts | 69° |
| 2026-04-18 11:15 | 50.04245 | 8.52859 | 359 ft | 21 kts | 69° |
| 2026-04-18 11:15 | 50.04294 | 8.53066 | 356 ft | 21 kts | 70° |
| 2026-04-18 11:16 | 50.04345 | 8.53277 | 368 ft | 24 kts | 70° |
| 2026-04-18 11:16 | 50.04396 | 8.53530 | 375 ft | 23 kts | 82° |
| 2026-04-18 11:16 | 50.04413 | 8.53785 | 375 ft | 24 kts | 83° |
| 2026-04-18 11:16 | 50.04431 | 8.54049 | 375 ft | 25 kts | 84° |
| 2026-04-18 11:17 | 50.04448 | 8.54323 | 374 ft | 21 kts | 84° |
| 2026-04-18 11:17 | 50.04436 | 8.54571 | 369 ft | 26 kts | 111° |
| 2026-04-18 11:17 | 50.04304 | 8.54777 | 358 ft | 30 kts | 157° |
| 2026-04-18 11:17 | 50.04136 | 8.54871 | 352 ft | 25 kts | 159° |
| 2026-04-18 11:18 | 50.04007 | 8.54947 | 359 ft | 14 kts | 159° |
| 2026-04-18 11:18 | 50.03912 | 8.55005 | 354 ft | 16 kts | 159° |
| 2026-04-18 11:18 | 50.03848 | 8.55076 | 349 ft | 11 kts | 104° |
| 2026-04-18 11:18 | 50.03868 | 8.55192 | 356 ft | 12 kts | 69° |
| 2026-04-18 11:19 | 50.03898 | 8.55319 | 353 ft | 14 kts | 70° |
| 2026-04-18 11:19 | 50.03944 | 8.55513 | 353 ft | 23 kts | 69° |
| 2026-04-18 11:19 | 50.04003 | 8.55759 | 354 ft | 24 kts | 70° |
| 2026-04-18 11:19 | 50.04063 | 8.56007 | 354 ft | 25 kts | 69° |
| 2026-04-18 11:20 | 50.04122 | 8.56258 | 359 ft | 25 kts | 70° |
| 2026-04-18 11:20 | 50.04182 | 8.56510 | 359 ft | 25 kts | 69° |
| 2026-04-18 11:20 | 50.04242 | 8.56757 | 362 ft | 24 kts | 70° |
| 2026-04-18 11:20 | 50.04299 | 8.56998 | 366 ft | 24 kts | 70° |
| 2026-04-18 11:21 | 50.04356 | 8.57239 | 366 ft | 24 kts | 69° |
| 2026-04-18 11:21 | 50.04417 | 8.57489 | 363 ft | 25 kts | 70° |
| 2026-04-18 11:21 | 50.04476 | 8.57739 | 367 ft | 25 kts | 70° |
| 2026-04-18 11:21 | 50.04538 | 8.57994 | 366 ft | 26 kts | 69° |
| 2026-04-18 11:22 | 50.04600 | 8.58258 | 370 ft | 25 kts | 70° |
| 2026-04-18 11:22 | 50.04661 | 8.58509 | 371 ft | 25 kts | 69° |
| 2026-04-18 11:22 | 50.04727 | 8.58767 | 372 ft | 26 kts | 68° |
| 2026-04-18 11:22 | 50.04751 | 8.58862 | 371 ft | 5 kts | 69° |
| 2026-04-18 11:23 | 50.04765 | 8.58919 | 370 ft | 7 kts | 69° |
| 2026-04-18 11:23 | 50.04782 | 8.58993 | 369 ft | 8 kts | 70° |
| 2026-04-18 11:23 | 50.04803 | 8.59084 | 374 ft | 10 kts | 69° |
| 2026-04-18 11:23 | 50.04828 | 8.59143 | 369 ft | 6 kts | 17° |
| 2026-04-18 11:24 | 50.04881 | 8.59121 | 368 ft | 5 kts | 340° |
| 2026-04-18 11:24 | 50.04901 | 8.59110 | 371 ft | 2 kts | 339° |
| 2026-04-18 11:24 | 50.04902 | 8.59109 | 365 ft | 0 kts | 339° |